Time;durP1;ratioP1;P1;durP2;ratioP2;P2;SDS_P1;SDS_P2;PMS_P1;PMS_P2;Temp;Humidity;BMP_temperature;BMP_pressure;BME280_temperature;BME280_humidity;BME280_pressure;Samples;Min_cycle;Max_cycle;Signal;HPM_P1;HPM_P2
2023/07/21 00:00:29;;;;;;;14.13;7.72;;;;;;;;;;5063405;28;20063;-63
2023/07/21 00:02:55;;;;;;;10.40;7.20;;;;;;;;;;5062325;28;20086;-65
2023/07/21 00:05:25;;;;;;;10.73;7.47;;;;;;;;;;5061869;28;20036;-62
2023/07/21 00:07:51;;;;;;;17.73;8.70;;;;;;;;;;5061365;28;20082;-62
2023/07/21 00:10:18;;;;;;;13.18;8.25;;;;;;;;;;5036757;28;20043;-64
2023/07/21 00:12:49;;;;;;;12.75;7.97;;;;;;;;;;5061062;28;20120;-63
2023/07/21 00:15:17;;;;;;;11.73;7.50;;;;;;;;;;5062900;28;20028;-64
2023/07/21 00:17:47;;;;;;;13.82;8.15;;;;;;;;;;5061977;28;20097;-62
2023/07/21 00:20:24;;;;;;;14.10;7.90;;;;;;;;;;5062028;28;20035;-64
2023/07/21 00:22:51;;;;;;;20.95;7.85;;;;;;;;;;5061776;28;20028;-62
2023/07/21 00:25:18;;;;;;;13.32;7.72;;;;;;;;;;5045915;28;20066;-65
2023/07/21 00:27:45;;;;;;;12.15;7.60;;;;;;;;;;5061797;28;20102;-61
2023/07/21 00:30:12;;;;;;;17.85;7.43;;;;;;;;;;5061904;28;20444;-63
2023/07/21 00:32:40;;;;;;;12.35;7.60;;;;;;;;;;5059305;28;20058;-62
2023/07/21 00:35:08;;;;;;;12.95;7.72;;;;;;;;;;5059917;28;20111;-64
2023/07/21 00:37:38;;;;;;;15.13;8.07;;;;;;;;;;5061165;28;20035;-64
2023/07/21 00:40:09;;;;;;;14.88;9.05;;;;;;;;;;5059743;28;20817;-65
2023/07/21 00:42:35;;;;;;;14.10;7.50;;;;;;;;;;5061916;28;20020;-64
2023/07/21 00:45:03;;;;;;;13.18;8.30;;;;;;;;;;5060391;28;20043;-65
2023/07/21 00:47:30;;;;;;;15.20;8.10;;;;;;;;;;5060745;28;20033;-64
2023/07/21 00:49:57;;;;;;;15.52;7.75;;;;;;;;;;5059930;28;20553;-64
2023/07/21 00:52:27;;;;;;;12.70;7.18;;;;;;;;;;5060873;28;20090;-65
2023/07/21 00:54:53;;;;;;;16.25;8.43;;;;;;;;;;5058438;28;20043;-65
2023/07/21 00:57:21;;;;;;;14.80;8.75;;;;;;;;;;5060985;28;20036;-65
2023/07/21 00:59:48;;;;;;;12.85;7.75;;;;;;;;;;5058387;28;20820;-65
2023/07/21 01:02:15;;;;;;;13.70;8.18;;;;;;;;;;5060757;28;20052;-66
2023/07/21 01:04:44;;;;;;;17.65;9.27;;;;;;;;;;5060470;28;20064;-65
2023/07/21 01:07:11;;;;;;;13.10;7.90;;;;;;;;;;5060768;28;20389;-65
2023/07/21 01:09:39;;;;;;;17.95;8.30;;;;;;;;;;5061035;28;20433;-64
2023/07/21 01:12:07;;;;;;;12.13;7.70;;;;;;;;;;5060699;28;20033;-65
2023/07/21 01:14:37;;;;;;;17.60;8.25;;;;;;;;;;5058326;28;20378;-64
2023/07/21 01:17:06;;;;;;;14.57;8.07;;;;;;;;;;5034987;28;20032;-64
2023/07/21 01:19:34;;;;;;;16.65;7.95;;;;;;;;;;5059194;28;20422;-65
2023/07/21 01:22:03;;;;;;;15.10;7.90;;;;;;;;;;5060109;28;20021;-65
2023/07/21 01:25:07;;;;;;;14.60;8.05;;;;;;;;;;5061247;28;20039;-65
2023/07/21 01:27:39;;;;;;;13.57;7.63;;;;;;;;;;4971876;28;20128;-64
2023/07/21 01:30:06;;;;;;;;;;;;;;;;;;5051017;28;20752;-61
2023/07/21 01:32:36;;;;;;;13.70;8.02;;;;;;;;;;5060432;28;19923;-62
2023/07/21 01:35:03;;;;;;;13.82;8.23;;;;;;;;;;5059462;28;20287;-62
2023/07/21 01:37:31;;;;;;;20.08;7.90;;;;;;;;;;5060509;28;20534;-65
2023/07/21 01:39:59;;;;;;;17.55;8.07;;;;;;;;;;5058731;28;20119;-64
2023/07/21 01:42:29;;;;;;;13.27;7.82;;;;;;;;;;5059382;28;20033;-62
2023/07/21 01:44:56;;;;;;;15.38;8.02;;;;;;;;;;5059381;28;20025;-62
2023/07/21 01:47:24;;;;;;;12.40;8.15;;;;;;;;;;5060222;28;20036;-65
2023/07/21 01:49:51;;;;;;;14.10;8.57;;;;;;;;;;5059462;28;20135;-65
2023/07/21 01:52:19;;;;;;;13.75;7.53;;;;;;;;;;5060729;28;20115;-66
2023/07/21 01:55:12;;;;;;;14.25;7.85;;;;;;;;;;5060150;28;20032;-65
2023/07/21 01:57:39;;;;;;;13.23;7.63;;;;;;;;;;5026606;28;20501;-65
2023/07/21 02:00:10;;;;;;;15.02;8.35;;;;;;;;;;5061168;28;20489;-65
2023/07/21 02:02:37;;;;;;;16.10;7.63;;;;;;;;;;5060148;28;20049;-66
2023/07/21 02:05:07;;;;;;;13.82;7.72;;;;;;;;;;5060536;28;20106;-65
2023/07/21 02:07:35;;;;;;;18.27;7.63;;;;;;;;;;5062086;28;20139;-65
2023/07/21 02:10:04;;;;;;;15.85;8.10;;;;;;;;;;5059400;28;20032;-65
2023/07/21 02:12:30;;;;;;;15.45;8.32;;;;;;;;;;5061494;28;20059;-64
2023/07/21 02:14:57;;;;;;;14.50;7.82;;;;;;;;;;5062532;28;20046;-64
2023/07/21 02:17:23;;;;;;;13.93;7.13;;;;;;;;;;5063176;28;20047;-62
2023/07/21 02:19:50;;;;;;;15.95;8.77;;;;;;;;;;5063818;28;20036;-64
2023/07/21 02:22:17;;;;;;;16.42;8.50;;;;;;;;;;5063724;28;20063;-63
2023/07/21 02:24:43;;;;;;;17.70;8.70;;;;;;;;;;5035748;28;20102;-63
2023/07/21 02:27:10;;;;;;;19.73;9.15;;;;;;;;;;5061040;28;20389;-63
2023/07/21 02:29:36;;;;;;;18.00;8.52;;;;;;;;;;5064650;28;20085;-62
2023/07/21 02:32:03;;;;;;;20.10;8.52;;;;;;;;;;5060563;28;20068;-65
2023/07/21 02:34:30;;;;;;;20.55;9.23;;;;;;;;;;5062031;28;20437;-65
2023/07/21 02:36:56;;;;;;;15.82;8.48;;;;;;;;;;5062016;28;20029;-66
2023/07/21 02:39:23;;;;;;;17.48;8.30;;;;;;;;;;5038281;28;20048;-65
2023/07/21 02:41:49;;;;;;;17.45;8.98;;;;;;;;;;5061060;28;20426;-67
2023/07/21 02:44:16;;;;;;;16.70;8.32;;;;;;;;;;5061245;28;20031;-67
2023/07/21 02:46:43;;;;;;;17.38;9.32;;;;;;;;;;5064085;28;20552;-66
2023/07/21 02:49:09;;;;;;;21.25;9.20;;;;;;;;;;5063476;28;20037;-64
2023/07/21 02:51:36;;;;;;;16.58;8.55;;;;;;;;;;5063746;28;20544;-66
2023/07/21 02:54:02;;;;;;;23.13;8.80;;;;;;;;;;5064950;28;20039;-68
2023/07/21 02:56:29;;;;;;;13.65;8.35;;;;;;;;;;5060906;28;20090;-67
2023/07/21 02:58:56;;;;;;;16.90;9.00;;;;;;;;;;5048548;28;20028;-66
2023/07/21 03:01:23;;;;;;;17.17;8.63;;;;;;;;;;5079504;28;20594;-67
2023/07/21 03:03:54;;;;;;;19.85;9.00;;;;;;;;;;5049412;28;20068;-65
2023/07/21 03:06:21;;;;;;;16.67;9.55;;;;;;;;;;5064299;28;20113;-64
2023/07/21 03:09:07;;;;;;;15.68;8.63;;;;;;;;;;5061893;28;20133;-62
2023/07/21 03:11:34;;;;;;;19.30;9.05;;;;;;;;;;5019548;28;20056;-63
2023/07/21 03:14:00;;;;;;;15.52;8.80;;;;;;;;;;5017974;28;20041;-64
2023/07/21 03:16:27;;;;;;;14.98;8.82;;;;;;;;;;5019011;28;20037;-63
2023/07/21 03:18:53;;;;;;;16.63;8.50;;;;;;;;;;5021693;28;20608;-62
2023/07/21 03:21:20;;;;;;;18.58;9.13;;;;;;;;;;5019708;28;20041;-65
2023/07/21 03:23:47;;;;;;;17.20;9.40;;;;;;;;;;5018370;28;20518;-61
2023/07/21 03:26:17;;;;;;;18.27;9.85;;;;;;;;;;5019457;28;20033;-61
2023/07/21 03:28:43;;;;;;;22.10;9.90;;;;;;;;;;5018275;28;20037;-63
2023/07/21 03:31:10;;;;;;;14.70;9.20;;;;;;;;;;5017790;28;20036;-63
2023/07/21 03:33:37;;;;;;;23.88;10.05;;;;;;;;;;5020146;28;20186;-62
2023/07/21 03:36:04;;;;;;;15.75;9.52;;;;;;;;;;5018394;28;20037;-64
2023/07/21 03:38:37;;;;;;;22.83;9.77;;;;;;;;;;5019237;28;20636;-63
2023/07/21 03:41:03;;;;;;;;;;;;;;;;;;5020058;28;20161;-64
2023/07/21 03:43:30;;;;;;;17.42;9.48;;;;;;;;;;5018777;28;20662;-64
2023/07/21 03:45:59;;;;;;;20.20;9.85;;;;;;;;;;5019363;28;20588;-63
2023/07/21 03:48:26;;;;;;;13.85;8.48;;;;;;;;;;5031152;28;20071;-67
2023/07/21 03:51:00;;;;;;;16.52;8.77;;;;;;;;;;5061443;28;20401;-64
2023/07/21 03:53:27;;;;;;;18.30;9.82;;;;;;;;;;5046218;28;20032;-64
2023/07/21 03:55:54;;;;;;;16.45;8.73;;;;;;;;;;5061737;28;20039;-63
2023/07/21 03:58:21;;;;;;;16.30;9.48;;;;;;;;;;5061106;28;20040;-63
2023/07/21 04:00:48;;;;;;;18.85;9.05;;;;;;;;;;5060533;28;20420;-61
2023/07/21 04:03:15;;;;;;;17.77;9.65;;;;;;;;;;5044733;28;20488;-62
2023/07/21 04:05:41;;;;;;;21.45;9.95;;;;;;;;;;5038694;28;20052;-63
2023/07/21 04:08:09;;;;;;;17.15;9.95;;;;;;;;;;5065439;28;20051;-62
2023/07/21 04:10:40;;;;;;;18.08;9.30;;;;;;;;;;5064685;28;20036;-62
2023/07/21 04:13:07;;;;;;;16.47;9.17;;;;;;;;;;5063455;28;20481;-63
2023/07/21 04:15:34;;;;;;;17.88;9.30;;;;;;;;;;5064002;28;20141;-62
2023/07/21 04:18:01;;;;;;;22.88;9.75;;;;;;;;;;5041123;28;20037;-63
2023/07/21 04:20:31;;;;;;;17.20;10.32;;;;;;;;;;5062102;28;20492;-62
2023/07/21 04:22:58;;;;;;;19.50;10.38;;;;;;;;;;5063977;28;20573;-63
2023/07/21 04:25:24;;;;;;;20.05;9.90;;;;;;;;;;5048412;28;20557;-60
2023/07/21 04:27:53;;;;;;;18.02;10.07;;;;;;;;;;5066063;28;20484;-62
2023/07/21 04:30:19;;;;;;;19.20;9.95;;;;;;;;;;5035110;28;20675;-64
2023/07/21 04:32:46;;;;;;;20.38;10.23;;;;;;;;;;5063542;28;20044;-64
2023/07/21 04:35:16;;;;;;;18.75;10.27;;;;;;;;;;5066769;28;20072;-64
2023/07/21 04:37:43;;;;;;;24.08;9.65;;;;;;;;;;5060805;28;20051;-61
2023/07/21 04:40:11;;;;;;;17.45;9.63;;;;;;;;;;5064248;28;20036;-65
2023/07/21 04:42:39;;;;;;;20.33;10.23;;;;;;;;;;5065591;28;20089;-64
2023/07/21 04:45:11;;;;;;;22.17;10.65;;;;;;;;;;5065213;28;20040;-63
2023/07/21 04:47:39;;;;;;;22.73;11.38;;;;;;;;;;5065089;28;20040;-64
2023/07/21 04:50:06;;;;;;;23.35;10.07;;;;;;;;;;5067132;28;20041;-63
2023/07/21 04:52:33;;;;;;;21.52;9.93;;;;;;;;;;5037186;28;20076;-63
2023/07/21 04:55:00;;;;;;;17.50;8.88;;;;;;;;;;5039354;28;20127;-61
2023/07/21 04:57:26;;;;;;;24.35;11.15;;;;;;;;;;5062866;28;20044;-63
2023/07/21 04:59:53;;;;;;;17.10;9.70;;;;;;;;;;5064574;28;20111;-61
2023/07/21 05:02:20;;;;;;;17.55;10.18;;;;;;;;;;5060514;28;20180;-62
2023/07/21 05:04:48;;;;;;;18.90;10.05;;;;;;;;;;5035444;28;20058;-62
2023/07/21 05:07:14;;;;;;;22.63;10.25;;;;;;;;;;5036038;28;20040;-63
2023/07/21 05:09:41;;;;;;;18.27;10.52;;;;;;;;;;5060590;28;20144;-62
2023/07/21 05:12:08;;;;;;;20.73;10.55;;;;;;;;;;5061841;28;20504;-63
2023/07/21 05:14:34;;;;;;;20.63;11.02;;;;;;;;;;5054460;28;20037;-63
2023/07/21 05:17:01;;;;;;;17.00;9.43;;;;;;;;;;5053495;28;20028;-62
2023/07/21 05:19:28;;;;;;;19.08;10.32;;;;;;;;;;5061443;28;20123;-63
2023/07/21 05:21:55;;;;;;;23.88;10.57;;;;;;;;;;5060435;28;20094;-62
2023/07/21 05:24:22;;;;;;;20.30;11.20;;;;;;;;;;5059214;28;20054;-61
2023/07/21 05:26:49;;;;;;;19.55;10.60;;;;;;;;;;5059382;28;20065;-61
2023/07/21 05:29:15;;;;;;;19.83;11.32;;;;;;;;;;5058861;28;20071;-62
2023/07/21 05:31:42;;;;;;;23.88;11.65;;;;;;;;;;5058471;28;20117;-61
2023/07/21 05:34:09;;;;;;;21.00;10.30;;;;;;;;;;5044035;28;20472;-62
2023/07/21 05:36:36;;;;;;;21.48;10.57;;;;;;;;;;5057529;28;20036;-60
2023/07/21 05:39:04;;;;;;;17.83;10.38;;;;;;;;;;5060026;28;20639;-62
2023/07/21 05:41:31;;;;;;;19.67;9.95;;;;;;;;;;5057607;28;20118;-62
2023/07/21 05:43:58;;;;;;;18.55;10.23;;;;;;;;;;5057702;28;20040;-63
2023/07/21 05:46:25;;;;;;;15.88;9.52;;;;;;;;;;5057272;28;20888;-61
2023/07/21 05:48:51;;;;;;;19.70;10.15;;;;;;;;;;5064058;28;20075;-62
2023/07/21 05:51:18;;;;;;;19.35;9.93;;;;;;;;;;5061010;28;20035;-62
2023/07/21 05:53:45;;;;;;;22.92;10.35;;;;;;;;;;5063494;28;20069;-61
2023/07/21 05:56:11;;;;;;;22.45;10.25;;;;;;;;;;5065220;28;20032;-63
2023/07/21 05:58:38;;;;;;;19.65;10.60;;;;;;;;;;5060351;28;21850;-62
2023/07/21 06:01:04;;;;;;;19.77;10.90;;;;;;;;;;5046030;28;20029;-62
2023/07/21 06:03:31;;;;;;;17.52;10.23;;;;;;;;;;5059781;28;20371;-61
2023/07/21 06:05:58;;;;;;;20.13;11.07;;;;;;;;;;5060705;28;20033;-62
2023/07/21 06:08:25;;;;;;;24.83;10.85;;;;;;;;;;5044676;28;20111;-62
2023/07/21 06:10:52;;;;;;;21.33;10.57;;;;;;;;;;5059315;28;20081;-61
2023/07/21 06:13:19;;;;;;;24.52;11.35;;;;;;;;;;5040322;28;20039;-63
2023/07/21 06:15:45;;;;;;;20.58;10.77;;;;;;;;;;5058132;28;20082;-64
2023/07/21 06:18:12;;;;;;;18.10;10.95;;;;;;;;;;5058501;28;20048;-63
2023/07/21 06:20:39;;;;;;;21.02;11.60;;;;;;;;;;5059493;28;20048;-62
2023/07/21 06:23:05;;;;;;;17.50;10.15;;;;;;;;;;5062229;28;20041;-62
2023/07/21 06:25:32;;;;;;;16.77;9.85;;;;;;;;;;5057061;28;20074;-61
2023/07/21 06:27:58;;;;;;;18.52;10.80;;;;;;;;;;5060419;28;20510;-62
2023/07/21 06:30:25;;;;;;;21.38;11.13;;;;;;;;;;5058454;28;20539;-60
2023/07/21 06:32:52;;;;;;;18.33;10.23;;;;;;;;;;5061768;28;20497;-63
2023/07/21 06:35:18;;;;;;;17.05;10.10;;;;;;;;;;5039725;28;20034;-62
2023/07/21 06:37:45;;;;;;;18.73;10.25;;;;;;;;;;5049840;28;20045;-62
2023/07/21 06:40:12;;;;;;;20.83;10.68;;;;;;;;;;5056204;28;20094;-62
2023/07/21 06:42:44;;;;;;;29.50;10.77;;;;;;;;;;5059131;28;20789;-61
2023/07/21 06:45:10;;;;;;;22.53;10.87;;;;;;;;;;5043600;28;20105;-60
2023/07/21 06:47:38;;;;;;;17.65;10.27;;;;;;;;;;5059861;28;20265;-61
2023/07/21 06:50:04;;;;;;;21.27;10.38;;;;;;;;;;5044002;28;20091;-62
2023/07/21 06:52:31;;;;;;;22.73;10.05;;;;;;;;;;5057678;28;20159;-63
2023/07/21 06:55:01;;;;;;;18.38;10.95;;;;;;;;;;5034265;28;20041;-61
2023/07/21 06:57:27;;;;;;;18.60;10.40;;;;;;;;;;5061714;28;20047;-61
2023/07/21 06:59:54;;;;;;;20.45;9.98;;;;;;;;;;5064530;28;20051;-62
2023/07/21 07:02:21;;;;;;;19.27;10.32;;;;;;;;;;5043434;28;20425;-60
2023/07/21 07:04:48;;;;;;;17.92;10.35;;;;;;;;;;5048769;28;20901;-60
2023/07/21 07:07:16;;;;;;;26.83;11.23;;;;;;;;;;5062893;28;20048;-61
2023/07/21 07:09:43;;;;;;;20.17;9.93;;;;;;;;;;5041793;28;20040;-61
2023/07/21 07:12:10;;;;;;;18.50;10.70;;;;;;;;;;5037976;28;20113;-60
2023/07/21 07:14:36;;;;;;;22.10;10.30;;;;;;;;;;5062764;28;20042;-60
2023/07/21 07:17:03;;;;;;;20.88;10.20;;;;;;;;;;5038022;28;20048;-62
2023/07/21 07:19:30;;;;;;;18.38;10.35;;;;;;;;;;5060023;28;20043;-61
2023/07/21 07:21:57;;;;;;;21.30;11.25;;;;;;;;;;5061459;28;20436;-61
2023/07/21 07:24:23;;;;;;;25.52;11.25;;;;;;;;;;5060873;28;20041;-62
2023/07/21 07:26:50;;;;;;;22.50;11.10;;;;;;;;;;5062264;28;20044;-62
2023/07/21 07:29:16;;;;;;;19.60;11.07;;;;;;;;;;5045807;28;20028;-60
2023/07/21 07:31:43;;;;;;;27.83;11.95;;;;;;;;;;5063266;28;20048;-64
2023/07/21 07:34:10;;;;;;;24.70;11.35;;;;;;;;;;5063991;28;20040;-62
2023/07/21 07:36:36;;;;;;;20.58;11.13;;;;;;;;;;5062855;28;20043;-61
2023/07/21 07:39:03;;;;;;;19.13;10.60;;;;;;;;;;5043437;28;20032;-61
2023/07/21 07:41:29;;;;;;;18.42;10.25;;;;;;;;;;5039512;28;20029;-63
2023/07/21 07:43:56;;;;;;;20.08;10.52;;;;;;;;;;5065346;28;20139;-62
2023/07/21 07:46:23;;;;;;;20.35;11.32;;;;;;;;;;5065752;28;20040;-62
2023/07/21 07:48:51;;;;;;;18.38;10.43;;;;;;;;;;5064657;28;20738;-62
2023/07/21 07:51:17;;;;;;;22.55;10.52;;;;;;;;;;5048941;28;20043;-63
2023/07/21 07:53:44;;;;;;;22.15;10.48;;;;;;;;;;5046425;28;22005;-63
2023/07/21 07:56:17;;;;;;;23.95;11.10;;;;;;;;;;5063933;28;20116;-62
2023/07/21 07:58:44;;;;;;;22.52;11.27;;;;;;;;;;5062625;28;20049;-63
2023/07/21 08:01:13;;;;;;;20.17;11.32;;;;;;;;;;5037080;28;20029;-62
2023/07/21 08:03:44;;;;;;;22.63;10.93;;;;;;;;;;5062631;28;20049;-62
2023/07/21 08:06:11;;;;;;;23.30;11.30;;;;;;;;;;5047758;28;20052;-61
2023/07/21 08:08:38;;;;;;;22.95;10.48;;;;;;;;;;5064761;28;20139;-62
2023/07/21 08:11:06;;;;;;;19.23;10.70;;;;;;;;;;5038789;28;20039;-62
2023/07/21 08:13:32;;;;;;;20.35;11.48;;;;;;;;;;5063861;28;20067;-61
2023/07/21 08:15:59;;;;;;;20.50;9.98;;;;;;;;;;5064137;28;20036;-61
2023/07/21 08:18:26;;;;;;;19.55;10.57;;;;;;;;;;5059939;28;20044;-61
2023/07/21 08:20:52;;;;;;;18.63;10.18;;;;;;;;;;5066667;28;20057;-60
2023/07/21 08:23:19;;;;;;;22.05;10.70;;;;;;;;;;5048639;28;20044;-62
2023/07/21 08:25:45;;;;;;;21.70;11.75;;;;;;;;;;5066351;28;20130;-59
2023/07/21 08:28:12;;;;;;;19.85;11.18;;;;;;;;;;5048384;28;20061;-60
2023/07/21 08:30:39;;;;;;;17.15;9.85;;;;;;;;;;5060428;28;20040;-61
2023/07/21 08:33:05;;;;;;;20.33;10.40;;;;;;;;;;5065645;28;20032;-63
2023/07/21 08:35:33;;;;;;;19.52;10.63;;;;;;;;;;5047866;28;22082;-63
2023/07/21 08:37:59;;;;;;;18.33;10.18;;;;;;;;;;5065801;28;20516;-64
2023/07/21 08:40:26;;;;;;;18.85;10.75;;;;;;;;;;5059927;28;20040;-63
2023/07/21 08:42:54;;;;;;;17.80;9.70;;;;;;;;;;5038493;28;20041;-65
2023/07/21 08:45:20;;;;;;;21.40;10.82;;;;;;;;;;5060922;28;20039;-65
2023/07/21 08:47:48;;;;;;;16.02;9.55;;;;;;;;;;5036596;28;20408;-62
2023/07/21 08:50:19;;;;;;;18.02;10.77;;;;;;;;;;5062344;28;20044;-65
2023/07/21 08:52:46;;;;;;;19.63;10.10;;;;;;;;;;5043372;28;20048;-64
2023/07/21 08:55:13;;;;;;;18.05;10.40;;;;;;;;;;5036953;28;20037;-63
2023/07/21 08:57:40;;;;;;;15.60;9.57;;;;;;;;;;5062954;28;20044;-62
2023/07/21 09:00:07;;;;;;;17.58;9.80;;;;;;;;;;5064066;28;20041;-64
2023/07/21 09:02:40;;;;;;;18.77;10.15;;;;;;;;;;5048234;28;20097;-62
2023/07/21 09:05:07;;;;;;;18.20;10.35;;;;;;;;;;5042913;28;20119;-63
2023/07/21 09:07:36;;;;;;;21.98;10.85;;;;;;;;;;5059261;28;20123;-62
2023/07/21 09:10:05;;;;;;;19.65;10.40;;;;;;;;;;5037028;28;20033;-63
2023/07/21 09:12:40;;;;;;;21.05;10.98;;;;;;;;;;5041609;28;20076;-63
2023/07/21 09:15:11;;;;;;;19.92;10.43;;;;;;;;;;5049742;28;20040;-62
2023/07/21 09:17:44;;;;;;;18.05;10.10;;;;;;;;;;5061371;28;20041;-62
2023/07/21 09:20:10;;;;;;;;;;;;;;;;;;5059917;28;20658;-61
2023/07/21 09:22:37;;;;;;;17.17;9.90;;;;;;;;;;5058620;28;19916;-62
2023/07/21 09:25:03;;;;;;;19.38;10.20;;;;;;;;;;5061860;28;20055;-64
2023/07/21 09:27:30;;;;;;;17.60;9.63;;;;;;;;;;5062190;28;20040;-63
2023/07/21 09:30:00;;;;;;;20.13;10.20;;;;;;;;;;5058941;28;20520;-63
2023/07/21 09:32:27;;;;;;;18.13;10.75;;;;;;;;;;5058027;28;20398;-64
2023/07/21 09:34:56;;;;;;;20.48;10.80;;;;;;;;;;5058838;28;20427;-64
2023/07/21 09:37:25;;;;;;;20.88;10.32;;;;;;;;;;5057896;28;20141;-64
2023/07/21 09:39:52;;;;;;;19.25;10.00;;;;;;;;;;5060833;28;20033;-64
2023/07/21 09:42:23;;;;;;;18.38;10.55;;;;;;;;;;5056790;28;20091;-63
2023/07/21 09:44:50;;;;;;;18.63;10.27;;;;;;;;;;5036869;28;20119;-65
2023/07/21 09:47:17;;;;;;;19.25;10.93;;;;;;;;;;5035870;28;20035;-64
2023/07/21 09:49:48;;;;;;;20.40;10.57;;;;;;;;;;5059019;28;20056;-63
2023/07/21 09:52:15;;;;;;;20.15;11.38;;;;;;;;;;5058320;28;20044;-61
2023/07/21 09:54:46;;;;;;;19.55;10.73;;;;;;;;;;5058005;28;20679;-62
2023/07/21 09:57:15;;;;;;;20.17;10.65;;;;;;;;;;5060436;28;20104;-64
2023/07/21 09:59:45;;;;;;;19.77;10.35;;;;;;;;;;5058340;28;20159;-61
2023/07/21 10:02:12;;;;;;;18.75;10.98;;;;;;;;;;5058114;28;20056;-61
2023/07/21 10:04:39;;;;;;;20.23;10.95;;;;;;;;;;5035300;28;20039;-62
2023/07/21 10:07:07;;;;;;;18.15;10.60;;;;;;;;;;5059323;28;20143;-62
2023/07/21 10:09:36;;;;;;;21.27;10.70;;;;;;;;;;5057133;28;20466;-64
2023/07/21 10:12:12;;;;;;;19.77;10.52;;;;;;;;;;5035321;28;20051;-64
2023/07/21 10:14:39;;;;;;;19.25;10.73;;;;;;;;;;5058160;28;20047;-61
2023/07/21 10:17:07;;;;;;;19.92;11.35;;;;;;;;;;5060916;28;20043;-62
2023/07/21 10:19:44;;;;;;;20.17;10.43;;;;;;;;;;5060253;28;20044;-63
2023/07/21 10:22:14;;;;;;;18.25;10.65;;;;;;;;;;5061027;28;20349;-63
2023/07/21 10:24:47;;;;;;;18.90;10.55;;;;;;;;;;5060122;28;20066;-62
2023/07/21 10:27:21;;;;;;;26.23;10.90;;;;;;;;;;5061396;28;20048;-62
2023/07/21 10:29:56;;;;;;;18.33;10.65;;;;;;;;;;5059663;28;20554;-61
2023/07/21 10:32:23;;;;;;;17.08;10.02;;;;;;;;;;5057352;28;20032;-63
2023/07/21 10:34:52;;;;;;;20.27;11.05;;;;;;;;;;5060292;28;20395;-60
2023/07/21 10:37:19;;;;;;;22.02;10.93;;;;;;;;;;5064617;28;20242;-63
2023/07/21 10:39:53;;;;;;;19.88;10.57;;;;;;;;;;5066160;28;20040;-70
2023/07/21 10:42:20;;;;;;;18.88;10.60;;;;;;;;;;5064300;28;20039;-62
2023/07/21 10:44:47;;;;;;;21.50;11.98;;;;;;;;;;5066159;28;20025;-63
2023/07/21 10:47:15;;;;;;;17.90;10.60;;;;;;;;;;5064853;28;20116;-62
2023/07/21 10:49:42;;;;;;;22.27;11.65;;;;;;;;;;5066144;28;20043;-63
2023/07/21 10:52:09;;;;;;;22.80;11.48;;;;;;;;;;5067272;28;20413;-62
2023/07/21 10:54:36;;;;;;;23.58;12.15;;;;;;;;;;5063111;28;20043;-60
2023/07/21 10:57:03;;;;;;;25.45;11.60;;;;;;;;;;5065042;28;22400;-60
2023/07/21 10:59:33;;;;;;;18.92;11.13;;;;;;;;;;5052137;28;20119;-62
2023/07/21 11:02:00;;;;;;;22.40;12.50;;;;;;;;;;5064937;28;20083;-65
2023/07/21 11:04:27;;;;;;;21.15;11.85;;;;;;;;;;5060763;28;20110;-61
2023/07/21 11:06:54;;;;;;;22.77;11.82;;;;;;;;;;5061924;28;20041;-61
2023/07/21 11:09:22;;;;;;;20.92;11.88;;;;;;;;;;5064456;28;20032;-63
2023/07/21 11:11:49;;;;;;;21.80;12.35;;;;;;;;;;5062442;28;20037;-60
2023/07/21 11:14:17;;;;;;;22.92;11.85;;;;;;;;;;5063477;28;20132;-63
2023/07/21 11:16:55;;;;;;;26.38;12.18;;;;;;;;;;5046269;28;20046;-61
2023/07/21 11:19:22;;;;;;;22.70;11.40;;;;;;;;;;5064712;28;20035;-64
2023/07/21 11:21:49;;;;;;;22.88;12.57;;;;;;;;;;5062691;28;20485;-63
2023/07/21 11:24:19;;;;;;;22.95;12.05;;;;;;;;;;5062872;28;20028;-63
2023/07/21 11:26:46;;;;;;;20.25;11.93;;;;;;;;;;5060665;28;20049;-63
2023/07/21 11:29:13;;;;;;;25.95;13.10;;;;;;;;;;5046324;28;20037;-62
2023/07/21 11:31:39;;;;;;;24.02;13.48;;;;;;;;;;5045925;28;20033;-63
2023/07/21 11:34:19;;;;;;;22.70;12.50;;;;;;;;;;5045852;28;20043;-67
2023/07/21 11:36:49;;;;;;;27.33;15.05;;;;;;;;;;5048524;28;20060;-63
2023/07/21 11:39:19;;;;;;;31.73;13.75;;;;;;;;;;5061109;28;20044;-62
2023/07/21 11:41:56;;;;;;;28.60;13.55;;;;;;;;;;5045337;28;20037;-64
2023/07/21 11:44:36;;;;;;;26.55;13.35;;;;;;;;;;5061225;28;20041;-63
2023/07/21 11:47:14;;;;;;;25.75;13.45;;;;;;;;;;5044545;28;20424;-61
2023/07/21 11:49:45;;;;;;;27.70;13.60;;;;;;;;;;5065560;28;20155;-63
2023/07/21 11:52:12;;;;;;;25.77;14.00;;;;;;;;;;5045975;28;20032;-66
2023/07/21 11:54:41;;;;;;;30.15;13.80;;;;;;;;;;5064009;28;20135;-66
2023/07/21 11:57:09;;;;;;;27.10;13.23;;;;;;;;;;5065870;28;20493;-63
2023/07/21 11:59:35;;;;;;;24.30;13.73;;;;;;;;;;5062047;28;20459;-64
2023/07/21 12:02:06;;;;;;;23.23;13.55;;;;;;;;;;5062844;28;20033;-64
2023/07/21 12:04:33;;;;;;;30.80;14.25;;;;;;;;;;5059809;28;20036;-65
2023/07/21 12:07:00;;;;;;;26.27;13.82;;;;;;;;;;5059605;28;20033;-65
2023/07/21 12:09:27;;;;;;;27.35;14.45;;;;;;;;;;5059978;28;20522;-65
2023/07/21 12:11:55;;;;;;;32.63;14.27;;;;;;;;;;5043394;28;20153;-64
2023/07/21 12:14:23;;;;;;;30.02;14.63;;;;;;;;;;5041219;28;20358;-65
2023/07/21 12:16:53;;;;;;;26.92;13.82;;;;;;;;;;5058758;28;20041;-65
2023/07/21 12:19:20;;;;;;;25.80;14.63;;;;;;;;;;5062584;28;20036;-64
2023/07/21 12:21:46;;;;;;;26.10;14.48;;;;;;;;;;5061729;28;21784;-64
2023/07/21 12:24:13;;;;;;;24.77;14.15;;;;;;;;;;5062705;28;20233;-63
2023/07/21 12:26:40;;;;;;;28.45;14.13;;;;;;;;;;5036261;28;20044;-60
2023/07/21 12:29:06;;;;;;;26.13;14.98;;;;;;;;;;5036469;28;20103;-63
2023/07/21 12:31:33;;;;;;;25.95;14.43;;;;;;;;;;5061303;28;20032;-62
2023/07/21 12:34:00;;;;;;;30.08;14.65;;;;;;;;;;5061750;28;20036;-66
2023/07/21 12:36:26;;;;;;;30.58;13.90;;;;;;;;;;5061590;28;20039;-65
2023/07/21 12:38:53;;;;;;;27.00;13.75;;;;;;;;;;5062066;28;20075;-63
2023/07/21 12:41:19;;;;;;;27.67;14.30;;;;;;;;;;5060103;28;20127;-64
2023/07/21 12:43:46;;;;;;;26.33;13.43;;;;;;;;;;5035226;28;20572;-63
2023/07/21 12:46:14;;;;;;;29.92;13.93;;;;;;;;;;5061509;28;20145;-62
2023/07/21 12:48:42;;;;;;;24.95;13.52;;;;;;;;;;5063036;28;20045;-60
2023/07/21 12:51:10;;;;;;;30.02;14.65;;;;;;;;;;5062892;28;20347;-63
2023/07/21 12:53:37;;;;;;;25.85;13.63;;;;;;;;;;5064041;28;20056;-62
2023/07/21 12:56:05;;;;;;;33.22;12.95;;;;;;;;;;5061570;28;20445;-64
2023/07/21 12:58:31;;;;;;;30.58;14.77;;;;;;;;;;5033743;28;20832;-64
2023/07/21 13:00:58;;;;;;;28.17;14.13;;;;;;;;;;5059775;28;20048;-62
2023/07/21 13:03:25;;;;;;;23.42;13.65;;;;;;;;;;5061536;28;20046;-62
2023/07/21 13:05:52;;;;;;;28.08;13.23;;;;;;;;;;5059766;28;20052;-64
2023/07/21 13:08:19;;;;;;;31.42;12.95;;;;;;;;;;5061376;28;20338;-63
2023/07/21 13:10:45;;;;;;;28.67;13.63;;;;;;;;;;5059362;28;20533;-61
2023/07/21 13:13:12;;;;;;;32.63;12.95;;;;;;;;;;5060146;28;20469;-62
2023/07/21 13:15:38;;;;;;;24.67;13.05;;;;;;;;;;5056816;28;20089;-63
2023/07/21 13:18:06;;;;;;;25.40;13.18;;;;;;;;;;5043207;28;20570;-63
2023/07/21 13:20:33;;;;;;;23.35;13.13;;;;;;;;;;5051726;28;20039;-63
2023/07/21 13:22:59;;;;;;;21.95;12.95;;;;;;;;;;5038602;28;21207;-63
2023/07/21 13:25:26;;;;;;;23.90;13.00;;;;;;;;;;5034663;28;20203;-63
2023/07/21 13:27:53;;;;;;;28.52;13.35;;;;;;;;;;5064936;28;20065;-64
2023/07/21 13:30:19;;;;;;;28.55;13.95;;;;;;;;;;5046898;28;20040;-63
2023/07/21 13:32:46;;;;;;;25.58;13.40;;;;;;;;;;5037818;28;20046;-63
2023/07/21 13:35:13;;;;;;;23.90;12.52;;;;;;;;;;5062300;28;20619;-62
2023/07/21 13:37:39;;;;;;;27.42;12.85;;;;;;;;;;5056731;28;20048;-63
2023/07/21 13:40:07;;;;;;;25.35;12.73;;;;;;;;;;5060602;28;20345;-62
2023/07/21 13:42:34;;;;;;;27.05;12.90;;;;;;;;;;5065899;28;20098;-61
2023/07/21 13:45:01;;;;;;;24.27;12.15;;;;;;;;;;5063799;28;20491;-63
2023/07/21 13:47:27;;;;;;;26.17;13.63;;;;;;;;;;5035734;28;20042;-60
2023/07/21 13:49:57;;;;;;;28.02;13.10;;;;;;;;;;5045985;28;20043;-60
2023/07/21 13:52:24;;;;;;;27.60;12.80;;;;;;;;;;5063368;28;20090;-61
2023/07/21 13:54:51;;;;;;;25.40;13.63;;;;;;;;;;5063164;28;20798;-61
2023/07/21 13:57:17;;;;;;;29.58;13.57;;;;;;;;;;5047751;28;20040;-63
2023/07/21 13:59:44;;;;;;;30.70;14.20;;;;;;;;;;5059951;28;20033;-62
2023/07/21 14:02:10;;;;;;;22.67;12.25;;;;;;;;;;5061161;28;20311;-61
2023/07/21 14:04:38;;;;;;;19.80;11.07;;;;;;;;;;5033728;28;20244;-65
2023/07/21 14:07:05;;;;;;;23.15;12.52;;;;;;;;;;5044309;28;20094;-63
2023/07/21 14:09:32;;;;;;;26.67;12.60;;;;;;;;;;5063357;28;21867;-62
2023/07/21 14:11:59;;;;;;;26.67;12.75;;;;;;;;;;5066368;28;20052;-63
2023/07/21 14:14:25;;;;;;;22.67;12.30;;;;;;;;;;5063468;28;20048;-64
2023/07/21 14:16:52;;;;;;;29.02;13.57;;;;;;;;;;5037228;28;20044;-62
2023/07/21 14:19:18;;;;;;;23.00;12.15;;;;;;;;;;5064520;28;20083;-64
2023/07/21 14:21:45;;;;;;;29.13;11.93;;;;;;;;;;5064164;28;20078;-64
2023/07/21 14:24:11;;;;;;;25.08;12.57;;;;;;;;;;5063922;28;20566;-62
2023/07/21 14:26:38;;;;;;;19.90;12.23;;;;;;;;;;5064107;28;20044;-63